Time;durP1;ratioP1;P1;durP2;ratioP2;P2;SDS_P1;SDS_P2;PMS_P1;PMS_P2;Temp;Humidity;BMP_temperature;BMP_pressure;BME280_temperature;BME280_humidity;BME280_pressure;Samples;Min_cycle;Max_cycle;Signal;HPM_P1;HPM_P2
2023/06/10 00:02:11;;;;;;;8.68;7.28;;;22.90;99.90;;;;;;5119561;28;20069;-74
2023/06/10 00:04:37;;;;;;;8.45;7.68;;;22.90;1.00;;;;;;5119477;28;20430;-74
2023/06/10 00:07:04;;;;;;;8.85;7.32;;;22.90;99.90;;;;;;5119313;28;20047;-74
2023/06/10 00:09:29;;;;;;;8.52;7.13;;;22.80;1.00;;;;;;5119569;28;20133;-74
2023/06/10 00:11:55;;;;;;;9.40;6.72;;;22.70;1.00;;;;;;5101795;28;20089;-74
2023/06/10 00:14:21;;;;;;;8.10;7.30;;;22.60;1.00;;;;;;5119415;28;20024;-74
2023/06/10 00:16:47;;;;;;;7.65;7.00;;;22.60;99.90;;;;;;5101782;28;20028;-74
2023/06/10 00:19:16;;;;;;;7.57;6.90;;;22.50;99.90;;;;;;5119453;28;20137;-74
2023/06/10 00:21:44;;;;;;;9.20;8.23;;;22.50;99.90;;;;;;5119239;28;20276;-74
2023/06/10 00:24:11;;;;;;;8.20;7.35;;;22.50;99.90;;;;;;5119238;28;20039;-74
2023/06/10 00:26:38;;;;;;;7.95;7.25;;;22.50;99.90;;;;;;5119513;28;20032;-74
2023/06/10 00:29:03;;;;;;;7.80;7.00;;;22.50;1.00;;;;;;5101355;28;20069;-74
2023/06/10 00:31:30;;;;;;;7.70;7.00;;;22.40;1.00;;;;;;5119078;28;20032;-75
2023/06/10 00:33:56;;;;;;;8.52;7.00;;;22.40;1.00;;;;;;5101206;28;20127;-74
2023/06/10 00:36:22;;;;;;;8.50;7.60;;;22.30;1.00;;;;;;5119520;28;20122;-75
2023/06/10 00:38:48;;;;;;;8.32;6.85;;;22.30;1.00;;;;;;5119173;28;20031;-74
2023/06/10 00:41:14;;;;;;;8.13;6.85;;;22.30;1.00;;;;;;5102043;28;20036;-74
2023/06/10 00:43:40;;;;;;;9.98;7.53;;;22.30;1.00;;;;;;5101294;28;20122;-74
2023/06/10 00:46:07;;;;;;;8.70;6.85;;;22.40;1.00;;;;;;5118891;28;20024;-74
2023/06/10 00:48:33;;;;;;;8.93;7.30;;;22.40;1.00;;;;;;5118951;28;20115;-74
2023/06/10 00:51:00;;;;;;;10.85;7.70;;;22.40;1.00;;;;;;5101193;28;20040;-74
2023/06/10 00:53:27;;;;;;;7.90;6.80;;;22.30;1.00;;;;;;5118832;28;20032;-74
2023/06/10 00:55:53;;;;;;;8.05;7.25;;;22.20;1.00;;;;;;5119064;28;20027;-74
2023/06/10 00:58:19;;;;;;;8.40;7.70;;;22.20;1.00;;;;;;5118546;28;20024;-74
2023/06/10 01:00:46;;;;;;;7.70;7.00;;;22.20;1.00;;;;;;5118581;28;20023;-74
2023/06/10 01:03:12;;;;;;;7.53;6.82;;;22.20;1.00;;;;;;5118493;28;20027;-75
2023/06/10 01:05:41;;;;;;;8.43;7.22;;;22.10;70.40;;;;;;5118454;28;20413;-74
2023/06/10 01:08:18;;;;;;;8.18;7.32;;;22.00;99.90;;;;;;5100591;28;20430;-74
2023/06/10 01:10:53;;;;;;;8.40;7.55;;;22.10;99.90;;;;;;5119137;28;20392;-74
2023/06/10 01:13:28;;;;;;;10.23;7.72;;;22.10;99.90;;;;;;5118363;28;20023;-74
2023/06/10 01:15:56;;;;;;;9.27;8.38;;;22.10;99.90;;;;;;5118609;28;20421;-74
2023/06/10 01:18:22;;;;;;;10.93;8.10;;;22.10;99.90;;;;;;5118234;28;20401;-74
2023/06/10 01:20:48;;;;;;;9.02;8.13;;;22.00;99.90;;;;;;5100515;28;20287;-74
2023/06/10 01:23:15;;;;;;;8.50;7.70;;;22.00;99.90;;;;;;5118038;28;20016;-74
2023/06/10 01:25:47;;;;;;;9.30;8.00;;;22.00;99.90;;;;;;5118120;28;20032;-74
2023/06/10 01:28:16;;;;;;;8.65;7.68;;;22.00;99.90;;;;;;5118074;28;20500;-75
2023/06/10 01:30:43;;;;;;;9.60;8.13;;;22.00;99.90;;;;;;5100519;28;20036;-74
2023/06/10 01:33:11;;;;;;;8.63;7.82;;;21.90;99.90;;;;;;5100339;28;20028;-74
2023/06/10 01:35:39;;;;;;;9.15;8.23;;;21.90;99.90;;;;;;5118042;28;20176;-74
2023/06/10 01:38:06;;;;;;;8.35;7.65;;;22.00;99.90;;;;;;5118016;28;20028;-74
2023/06/10 01:40:33;;;;;;;8.93;8.02;;;21.90;99.90;;;;;;5100093;28;20038;-74
2023/06/10 01:42:59;;;;;;;10.05;8.07;;;21.90;99.90;;;;;;5100354;28;20123;-74
2023/06/10 01:45:24;;;;;;;9.38;7.88;;;21.80;1.00;;;;;;5100245;28;20035;-74
2023/06/10 01:47:50;;;;;;;10.18;8.20;;;21.80;1.00;;;;;;5117834;28;20067;-74
2023/06/10 01:50:16;;;;;;;8.80;8.00;;;21.70;1.00;;;;;;5117734;28;20031;-74
2023/06/10 01:52:42;;;;;;;10.43;8.25;;;21.70;1.00;;;;;;5117898;28;20390;-74
2023/06/10 01:55:08;;;;;;;9.00;8.02;;;21.70;1.00;;;;;;5118077;28;20043;-74
2023/06/10 01:57:34;;;;;;;8.57;7.70;;;21.70;1.00;;;;;;5118086;28;20382;-74
2023/06/10 02:00:00;;;;;;;8.95;8.07;;;21.60;1.00;;;;;;5100133;28;20042;-74
2023/06/10 02:02:25;;;;;;;9.73;8.55;;;21.60;1.00;;;;;;5083111;28;20032;-74
2023/06/10 02:04:51;;;;;;;8.68;7.88;;;21.50;1.00;;;;;;5117709;28;20444;-74
2023/06/10 02:07:20;;;;;;;8.65;7.90;;;21.50;1.00;;;;;;5117460;28;20101;-74
2023/06/10 02:09:46;;;;;;;8.93;8.13;;;21.50;1.00;;;;;;5100039;28;20032;-74
2023/06/10 02:12:12;;;;;;;9.07;7.97;;;21.50;1.00;;;;;;5117611;28;20085;-74
2023/06/10 02:14:37;;;;;;;11.60;7.95;;;21.50;1.00;;;;;;5099901;28;20020;-74
2023/06/10 02:17:04;;;;;;;9.10;8.20;;;21.40;1.00;;;;;;5117506;28;20028;-74
2023/06/10 02:19:30;;;;;;;8.75;7.90;;;21.40;1.00;;;;;;5083196;28;20118;-74
2023/06/10 02:21:56;;;;;;;11.35;7.85;;;21.30;1.00;;;;;;5117436;28;20024;-73
2023/06/10 02:24:22;;;;;;;9.00;8.20;;;21.30;1.00;;;;;;5117979;28;20039;-74
2023/06/10 02:26:48;;;;;;;9.38;8.55;;;21.30;1.00;;;;;;5117524;28;20349;-74
2023/06/10 02:29:14;;;;;;;9.77;8.77;;;21.30;1.00;;;;;;5120217;28;20398;-74
2023/06/10 02:31:40;;;;;;;10.15;8.90;;;21.30;1.00;;;;;;5103604;28;20028;-74
2023/06/10 02:34:07;;;;;;;9.48;8.57;;;21.20;1.00;;;;;;5103686;28;20028;-74
2023/06/10 02:36:35;;;;;;;9.35;8.55;;;21.20;1.00;;;;;;5121478;28;20111;-74
2023/06/10 02:39:02;;;;;;;10.00;8.50;;;21.20;1.00;;;;;;5121406;28;20326;-74
2023/06/10 02:41:28;;;;;;;9.85;8.93;;;21.20;1.00;;;;;;5103553;28;20035;-73
2023/06/10 02:43:54;;;;;;;9.35;8.45;;;21.10;1.00;;;;;;5103617;28;20403;-74
2023/06/10 02:46:21;;;;;;;11.02;8.50;;;21.10;1.00;;;;;;5103431;28;20031;-74
2023/06/10 02:48:49;;;;;;;25.90;8.80;;;21.10;1.00;;;;;;5086773;28;20027;-74
2023/06/10 02:51:20;;;;;;;11.30;9.63;;;21.00;1.00;;;;;;5103547;28;20465;-74
2023/06/10 02:53:48;;;;;;;9.32;8.40;;;21.00;1.00;;;;;;5086997;28;20066;-74
2023/06/10 02:56:16;;;;;;;8.93;8.23;;;20.90;1.00;;;;;;5086508;28;20406;-71
2023/06/10 02:58:42;;;;;;;8.63;7.88;;;20.90;1.00;;;;;;5103252;28;20016;-72
2023/06/10 03:01:10;;;;;;;10.10;9.10;;;20.80;1.00;;;;;;5121377;28;20028;-73
2023/06/10 03:03:56;;;;;;;10.60;9.50;;;20.70;1.00;;;;;;5105833;28;20043;-73
2023/06/10 03:06:24;;;;;;;10.85;9.02;;;20.70;1.00;;;;;;5099404;28;20044;-74
2023/06/10 03:08:51;;;;;;;10.15;9.15;;;20.70;1.00;;;;;;5099697;28;20028;-73
2023/06/10 03:11:19;;;;;;;9.98;9.00;;;20.60;1.00;;;;;;5099587;28;20066;-74
2023/06/10 03:13:46;;;;;;;13.60;9.52;;;20.50;1.00;;;;;;5083046;28;20032;-74
2023/06/10 03:16:15;;;;;;;10.35;9.02;;;20.50;1.00;;;;;;5116964;28;20100;-73
2023/06/10 03:18:41;;;;;;;13.15;9.00;;;20.50;1.00;;;;;;5099269;28;20028;-74
2023/06/10 03:21:08;;;;;;;12.95;9.27;;;20.50;1.00;;;;;;5100136;28;20112;-74
2023/06/10 03:23:35;;;;;;;10.40;9.32;;;20.50;1.00;;;;;;5100067;28;20050;-73
2023/06/10 03:26:02;;;;;;;11.00;9.90;;;20.50;1.00;;;;;;5099214;28;20307;-73
2023/06/10 03:28:29;;;;;;;10.90;9.55;;;20.50;1.00;;;;;;5065906;28;20119;-73
2023/06/10 03:30:56;;;;;;;10.77;9.68;;;20.50;1.00;;;;;;5099168;28;20090;-72
2023/06/10 03:33:24;;;;;;;10.35;9.45;;;20.40;1.00;;;;;;5082389;28;20163;-73
2023/06/10 03:35:50;;;;;;;11.23;10.13;;;20.40;1.00;;;;;;5099096;28;20024;-74
2023/06/10 03:38:17;;;;;;;12.07;10.98;;;20.40;1.00;;;;;;5098901;28;20400;-73
2023/06/10 03:40:43;;;;;;;11.27;10.18;;;20.40;1.00;;;;;;5098507;28;20070;-72
2023/06/10 03:43:10;;;;;;;11.57;10.32;;;20.50;1.00;;;;;;5098912;28;20040;-72
2023/06/10 03:45:36;;;;;;;11.88;10.68;;;20.50;1.00;;;;;;5116005;28;20044;-73
2023/06/10 03:48:03;;;;;;;11.27;10.07;;;20.50;1.00;;;;;;5098866;28;20039;-73
2023/06/10 03:50:38;;;;;;;11.15;10.15;;;20.50;1.00;;;;;;5099659;28;20040;-74
2023/06/10 03:53:03;;;;;;;11.90;10.90;;;20.50;1.00;;;;;;5099691;28;20024;-74
2023/06/10 03:55:31;;;;;;;11.98;10.82;;;20.40;1.00;;;;;;5116030;27;20119;-71
2023/06/10 03:57:58;;;;;;;11.15;10.10;;;20.40;1.00;;;;;;5098720;28;20070;-73
2023/06/10 04:00:25;;;;;;;11.55;10.38;;;20.50;1.00;;;;;;5100150;28;20288;-73
2023/06/10 04:02:51;;;;;;;12.15;10.35;;;20.50;1.00;;;;;;5099647;28;20105;-72
2023/06/10 04:05:28;;;;;;;11.23;10.13;;;20.50;1.00;;;;;;5117155;27;20061;-72
2023/06/10 04:07:54;;;;;;;11.05;9.82;;;20.50;1.00;;;;;;5118277;28;20122;-74
2023/06/10 04:10:20;;;;;;;11.63;10.05;;;20.50;1.00;;;;;;5101976;28;20062;-74
2023/06/10 04:12:46;;;;;;;11.05;9.95;;;20.50;1.00;;;;;;5101738;28;20031;-73
2023/06/10 04:15:13;;;;;;;10.98;9.98;;;20.50;1.00;;;;;;5101779;28;20035;-73
2023/06/10 04:17:39;;;;;;;11.68;10.30;;;20.60;1.00;;;;;;5102174;28;20066;-73
2023/06/10 04:20:07;;;;;;;11.23;10.00;;;20.50;1.00;;;;;;5085023;28;20123;-74
2023/06/10 04:22:36;;;;;;;11.77;9.73;;;20.50;1.00;;;;;;5101471;28;20027;-72
2023/06/10 04:25:02;;;;;;;10.98;9.82;;;20.60;1.00;;;;;;5101575;28;20049;-73
2023/06/10 04:27:29;;;;;;;11.02;9.75;;;20.60;1.00;;;;;;5119126;28;20087;-73
2023/06/10 04:29:55;;;;;;;10.88;9.43;;;20.70;1.00;;;;;;5084641;28;20050;-73
2023/06/10 04:32:21;;;;;;;10.63;9.52;;;20.70;1.00;;;;;;5119254;28;20023;-73
2023/06/10 04:34:47;;;;;;;10.23;9.35;;;20.70;1.00;;;;;;5084601;28;20054;-73
2023/06/10 04:37:14;;;;;;;11.00;9.90;;;20.80;1.00;;;;;;5084572;28;20059;-73
2023/06/10 04:39:41;;;;;;;10.82;9.73;;;20.90;1.00;;;;;;5119097;28;20031;-73
2023/06/10 04:42:08;;;;;;;10.93;9.88;;;20.90;1.00;;;;;;5101167;28;20047;-72
2023/06/10 04:44:34;;;;;;;10.57;9.68;;;21.00;1.00;;;;;;5101195;28;20031;-72
2023/06/10 04:47:01;;;;;;;11.07;9.07;;;21.00;1.00;;;;;;5084376;28;20031;-72
2023/06/10 04:49:26;;;;;;;10.73;9.63;;;21.00;1.00;;;;;;5084178;28;20046;-72
2023/06/10 04:51:52;;;;;;;11.75;9.40;;;20.90;1.00;;;;;;5118391;28;20028;-72
2023/06/10 04:54:18;;;;;;;11.07;9.93;;;21.00;1.00;;;;;;5084211;28;20096;-73
2023/06/10 04:56:45;;;;;;;10.90;9.90;;;21.00;1.00;;;;;;5119030;28;20031;-72
2023/06/10 04:59:10;;;;;;;10.00;9.10;;;21.00;1.00;;;;;;5118688;28;20036;-72
2023/06/10 05:01:36;;;;;;;10.90;9.00;;;21.10;1.00;;;;;;5100935;28;20055;-72
2023/06/10 05:04:02;;;;;;;10.32;9.32;;;21.00;1.00;;;;;;5118660;28;20180;-73
2023/06/10 05:06:28;;;;;;;13.40;9.18;;;21.10;1.00;;;;;;5097102;28;20418;-73
2023/06/10 05:08:54;;;;;;;11.07;9.98;;;21.10;1.00;;;;;;5098017;28;20020;-72
2023/06/10 05:11:20;;;;;;;10.88;9.55;;;21.20;1.00;;;;;;5098302;28;20411;-72
2023/06/10 05:13:46;;;;;;;10.43;9.27;;;21.30;1.00;;;;;;5098233;28;20024;-74
2023/06/10 05:16:11;;;;;;;10.93;9.93;;;21.40;1.00;;;;;;5098004;28;20066;-73
2023/06/10 05:18:37;;;;;;;10.40;9.40;;;21.40;1.00;;;;;;5097145;28;20028;-73
2023/06/10 05:21:03;;;;;;;11.13;9.93;;;21.40;1.00;;;;;;5096999;28;20051;-72
2023/06/10 05:23:29;;;;;;;11.13;9.88;;;21.40;1.00;;;;;;5097730;28;20479;-74
2023/06/10 05:25:54;;;;;;;10.55;9.57;;;21.50;1.00;;;;;;5097442;28;20103;-73
2023/06/10 05:28:20;;;;;;;11.20;9.98;;;21.50;1.00;;;;;;5113759;28;20071;-73
2023/06/10 05:30:46;;;;;;;10.25;9.25;;;21.70;1.00;;;;;;5098100;28;20020;-73
2023/06/10 05:33:12;;;;;;;10.40;9.30;;;21.80;1.00;;;;;;5097525;28;20088;-72
2023/06/10 05:35:38;;;;;;;10.70;9.70;;;21.90;1.00;;;;;;5098121;28;20032;-72
2023/06/10 05:38:04;;;;;;;10.18;9.15;;;22.00;1.00;;;;;;5097662;28;20032;-72
2023/06/10 05:40:29;;;;;;;11.05;9.95;;;21.90;1.00;;;;;;5097564;28;20093;-74
2023/06/10 05:42:55;;;;;;;13.63;9.35;;;22.00;1.00;;;;;;5097354;28;20032;-71
2023/06/10 05:45:21;;;;;;;12.32;10.20;;;22.10;1.00;;;;;;5096809;28;20047;-71
2023/06/10 05:47:47;;;;;;;11.07;10.00;;;22.10;1.00;;;;;;5097541;28;20028;-71
2023/06/10 05:50:13;;;;;;;10.70;9.68;;;22.10;1.00;;;;;;5097351;28;20314;-71
2023/06/10 05:52:41;;;;;;;10.90;9.80;;;22.10;1.00;;;;;;5096639;28;20048;-72
2023/06/10 05:55:07;;;;;;;10.38;9.32;;;22.00;1.00;;;;;;5080793;28;20289;-74
2023/06/10 05:57:34;;;;;;;14.38;9.63;;;22.00;1.00;;;;;;5096601;28;20101;-77
2023/06/10 05:59:59;;;;;;;11.90;9.68;;;22.20;1.00;;;;;;5097261;28;20036;-76
2023/06/10 06:02:25;;;;;;;12.73;10.18;;;22.20;1.00;;;;;;5113225;28;20024;-75
2023/06/10 06:04:51;;;;;;;11.77;10.25;;;22.10;1.00;;;;;;5096320;28;20128;-76
2023/06/10 06:07:17;;;;;;;11.02;9.40;;;22.10;1.00;;;;;;5110822;28;20361;-76
2023/06/10 06:09:43;;;;;;;11.00;10.00;;;22.00;1.00;;;;;;5117757;28;20110;-76
2023/06/10 06:12:09;;;;;;;10.73;9.63;;;22.10;1.00;;;;;;5099697;28;20063;-75
2023/06/10 06:14:39;;;;;;;11.80;9.73;;;22.20;1.00;;;;;;5100010;28;20039;-74
2023/06/10 06:17:06;;;;;;;10.38;9.35;;;22.30;1.00;;;;;;5118295;28;20031;-76
2023/06/10 06:19:32;;;;;;;10.18;9.18;;;22.40;1.00;;;;;;5099684;28;20351;-76
2023/06/10 06:21:57;;;;;;;12.27;8.95;;;22.50;1.00;;;;;;5117477;28;20059;-75
2023/06/10 06:24:23;;;;;;;10.52;8.75;;;22.60;1.00;;;;;;5117417;28;20067;-76
2023/06/10 06:26:49;;;;;;;13.80;9.63;;;22.70;1.00;;;;;;5117334;28;20414;-75
2023/06/10 06:29:15;;;;;;;12.82;9.38;;;22.60;1.00;;;;;;5117266;28;20102;-75
2023/06/10 06:31:41;;;;;;;9.80;8.52;;;22.60;1.00;;;;;;5117503;28;20027;-75
2023/06/10 06:34:06;;;;;;;10.32;8.90;;;22.70;1.00;;;;;;5099621;28;20027;-76
2023/06/10 06:36:32;;;;;;;11.95;9.38;;;22.70;1.00;;;;;;5117427;28;20054;-76
2023/06/10 06:38:58;;;;;;;9.00;8.30;;;22.70;99.90;;;;;;5117456;28;20027;-76
2023/06/10 06:41:26;;;;;;;10.15;9.00;;;22.70;1.00;;;;;;5099691;28;20032;-75
2023/06/10 06:43:54;;;;;;;10.85;9.77;;;22.80;1.00;;;;;;5117455;28;20302;-76
2023/06/10 06:46:38;;;;;;;10.40;9.30;;;23.10;99.90;;;;;;5099936;28;20118;-75
2023/06/10 06:49:04;;;;;;;11.45;9.25;;;23.20;99.90;;;;;;5099712;28;20036;-76
2023/06/10 06:51:30;;;;;;;9.90;8.90;;;23.20;99.90;;;;;;5099544;28;20123;-75
2023/06/10 06:53:58;;;;;;;9.80;8.80;;;23.20;99.90;;;;;;5099615;28;20102;-76
2023/06/10 06:56:26;;;;;;;9.43;8.52;;;23.20;99.90;;;;;;5082960;28;20038;-76
2023/06/10 06:58:52;;;;;;;9.43;8.65;;;23.40;99.90;;;;;;5116938;28;20410;-76
2023/06/10 07:01:17;;;;;;;9.18;8.27;;;23.60;99.90;;;;;;5117966;28;20027;-76
2023/06/10 07:03:43;;;;;;;10.23;8.63;;;23.50;99.90;;;;;;5117135;28;20040;-76
2023/06/10 07:06:09;;;;;;;8.45;7.65;;;23.60;99.90;;;;;;5116564;28;20315;-75
2023/06/10 07:08:36;;;;;;;8.93;7.97;;;23.70;99.90;;;;;;5099326;28;20080;-76
2023/06/10 07:11:02;;;;;;;9.85;7.80;;;23.80;24.10;;;;;;5117080;28;20031;-75
2023/06/10 07:13:28;;;;;;;8.38;7.68;;;23.80;8.00;;;;;;5099220;28;20379;-75
2023/06/10 07:15:53;;;;;;;9.80;7.78;;;24.00;9.30;;;;;;5120772;28;20031;-74
2023/06/10 07:18:19;;;;;;;8.95;8.05;;;24.00;1.00;;;;;;5120868;28;20031;-75
2023/06/10 07:20:45;;;;;;;8.77;7.95;;;24.00;1.00;;;;;;5102853;28;20126;-74
2023/06/10 07:23:11;;;;;;;9.35;8.43;;;24.10;1.00;;;;;;5103056;28;20116;-74
2023/06/10 07:25:37;;;;;;;8.18;7.18;;;24.20;1.00;;;;;;5102937;28;20127;-74
2023/06/10 07:28:03;;;;;;;8.90;7.80;;;24.40;1.00;;;;;;5102870;28;20173;-74
2023/06/10 07:30:29;;;;;;;9.32;7.95;;;24.50;1.00;;;;;;5103032;28;20046;-75
2023/06/10 07:32:55;;;;;;;8.45;7.63;;;24.60;1.00;;;;;;5102693;28;20127;-75
2023/06/10 07:35:21;;;;;;;11.75;7.88;;;24.70;1.00;;;;;;5120563;28;20039;-75
2023/06/10 07:37:47;;;;;;;10.75;8.43;;;24.80;1.00;;;;;;5120466;28;20032;-75
2023/06/10 07:40:13;;;;;;;8.25;7.50;;;24.90;99.90;;;;;;5103014;28;20431;-75
2023/06/10 07:42:39;;;;;;;7.97;7.10;;;24.90;1.00;;;;;;5085830;28;20174;-75
2023/06/10 07:45:05;;;;;;;9.10;8.20;;;25.00;1.00;;;;;;5102884;28;20383;-75
2023/06/10 07:47:33;;;;;;;8.43;7.72;;;25.00;1.00;;;;;;5120240;28;20294;-74
2023/06/10 07:49:59;;;;;;;8.50;7.57;;;25.00;1.00;;;;;;5120186;28;20320;-75
2023/06/10 07:52:25;;;;;;;9.00;7.63;;;25.10;8.80;;;;;;5120039;28;20058;-75
2023/06/10 07:54:51;;;;;;;9.98;7.68;;;25.20;1.00;;;;;;5120149;28;20096;-75
2023/06/10 07:57:19;;;;;;;7.50;6.88;;;25.40;99.90;;;;;;5120002;28;20040;-74
2023/06/10 07:59:44;;;;;;;11.70;8.20;;;25.40;99.90;;;;;;5085623;28;20031;-74
2023/06/10 08:02:10;;;;;;;8.63;7.82;;;25.50;1.00;;;;;;5102889;28;20100;-74
2023/06/10 08:04:36;;;;;;;8.25;7.55;;;25.60;99.90;;;;;;5120014;28;20302;-74
2023/06/10 08:07:03;;;;;;;12.45;7.90;;;25.70;99.90;;;;;;5102171;28;20043;-73
2023/06/10 08:09:28;;;;;;;7.78;7.03;;;25.70;1.00;;;;;;5119825;28;20038;-74
2023/06/10 08:11:55;;;;;;;10.02;7.07;;;25.80;1.00;;;;;;5119878;28;20032;-74
2023/06/10 08:14:21;;;;;;;7.97;7.22;;;25.70;1.00;;;;;;5102424;28;20027;-73
2023/06/10 08:16:47;;;;;;;9.43;7.25;;;25.80;21.40;;;;;;5102425;28;20093;-74
2023/06/10 08:19:13;;;;;;;6.75;6.15;;;25.80;99.90;;;;;;5119448;28;20039;-73
2023/06/10 08:21:42;;;;;;;7.45;6.75;;;25.80;99.90;;;;;;5119558;28;20118;-74
2023/06/10 08:24:09;;;;;;;6.78;6.20;;;26.00;1.00;;;;;;5119392;28;20155;-74
2023/06/10 08:26:35;;;;;;;6.55;5.97;;;26.20;1.00;;;;;;5119412;28;20276;-74
2023/06/10 08:29:01;;;;;;;6.70;6.15;;;26.20;1.00;;;;;;5119241;28;20050;-74
2023/06/10 08:31:26;;;;;;;7.38;6.68;;;26.40;1.00;;;;;;5119352;28;20079;-74
2023/06/10 08:33:52;;;;;;;9.10;6.13;;;26.40;1.00;;;;;;5101489;28;20028;-75
2023/06/10 08:36:18;;;;;;;7.57;6.53;;;26.50;99.90;;;;;;5119753;28;20088;-73
2023/06/10 08:38:44;;;;;;;6.70;6.10;;;26.60;99.90;;;;;;5119150;28;20389;-74
2023/06/10 08:41:13;;;;;;;8.32;5.75;;;26.60;15.00;;;;;;5101637;28;20387;-74
2023/06/10 08:43:45;;;;;;;6.82;6.15;;;26.80;99.90;;;;;;5119138;28;20062;-76
2023/06/10 08:46:13;;;;;;;6.47;5.82;;;27.10;99.90;;;;;;5101299;28;20031;-74
2023/06/10 08:48:46;;;;;;;10.77;5.95;;;27.10;1.00;;;;;;5119172;28;20114;-75
2023/06/10 08:51:14;;;;;;;8.65;5.60;;;27.30;1.00;;;;;;5118725;28;20027;-75
2023/06/10 08:53:49;;;;;;;5.60;5.13;;;27.30;99.90;;;;;;5118863;28;20051;-75
2023/06/10 08:56:16;;;;;;;6.55;5.95;;;27.30;10.10;;;;;;5119366;28;20069;-74
2023/06/10 08:58:43;;;;;;;6.00;5.53;;;27.30;1.00;;;;;;5118742;28;20072;-74
2023/06/10 09:01:10;;;;;;;7.07;6.10;;;27.40;80.90;;;;;;5101209;28;20032;-73
2023/06/10 09:03:37;;;;;;;8.13;6.60;;;27.60;1.00;;;;;;5118565;28;20031;-73
2023/06/10 09:06:05;;;;;;;7.40;6.03;;;27.70;1.00;;;;;;5118437;28;20351;-73
2023/06/10 09:08:33;;;;;;;7.45;5.80;;;27.60;1.00;;;;;;5101039;28;20070;-73
2023/06/10 09:10:59;;;;;;;7.45;5.60;;;27.80;1.00;;;;;;5118728;28;20102;-73
2023/06/10 09:13:24;;;;;;;7.50;6.07;;;27.90;1.00;;;;;;5118574;28;20059;-73
2023/06/10 09:15:51;;;;;;;8.00;6.20;;;27.90;1.00;;;;;;5100683;28;20032;-76
2023/06/10 09:18:17;;;;;;;10.35;6.88;;;28.10;1.00;;;;;;5118976;28;20035;-74
2023/06/10 09:20:43;;;;;;;8.45;6.70;;;28.00;1.00;;;;;;5118323;28;20115;-75
2023/06/10 09:23:09;;;;;;;7.22;6.45;;;28.10;1.00;;;;;;5100386;28;20032;-73
2023/06/10 09:25:37;;;;;;;8.32;6.32;;;28.20;1.00;;;;;;5118185;28;20051;-74
2023/06/10 09:28:03;;;;;;;8.57;6.60;;;28.40;1.00;;;;;;5117512;27;20382;-75
2023/06/10 09:30:44;;;;;;;9.20;6.50;;;28.50;99.90;;;;;;5118999;28;20112;-74
2023/06/10 09:33:15;;;;;;;7.05;6.35;;;28.60;99.90;;;;;;5103311;28;20039;-74
2023/06/10 09:35:49;;;;;;;8.93;6.80;;;28.70;99.90;;;;;;5118978;28;20024;-74
2023/06/10 09:38:23;;;;;;;6.90;6.13;;;28.90;99.90;;;;;;5099967;28;20479;-76
2023/06/10 09:40:53;;;;;;;6.50;6.00;;;28.90;99.90;;;;;;5100668;28;20042;-74
2023/06/10 09:43:19;;;;;;;6.68;6.07;;;28.80;25.50;;;;;;5117982;28;20046;-75
2023/06/10 09:45:54;;;;;;;6.95;6.05;;;28.80;1.00;;;;;;5083939;28;20032;-75
2023/06/10 09:48:19;;;;;;;6.90;6.20;;;28.90;1.00;;;;;;5117824;28;20056;-76
2023/06/10 09:50:46;;;;;;;6.65;6.03;;;28.90;1.00;;;;;;5117629;28;20038;-75
2023/06/10 09:53:12;;;;;;;6.65;6.03;;;28.90;1.00;;;;;;5117708;28;20423;-76
2023/06/10 09:55:40;;;;;;;6.80;6.20;;;29.00;1.00;;;;;;5100230;28;20053;-75
2023/06/10 09:58:05;;;;;;;7.45;6.18;;;28.90;1.00;;;;;;5099957;28;20034;-74
2023/06/10 10:00:35;;;;;;;6.60;6.10;;;29.10;1.00;;;;;;5118041;28;20040;-73
2023/06/10 10:03:01;;;;;;;6.95;6.35;;;29.10;1.00;;;;;;5100242;28;20455;-74
2023/06/10 10:05:29;;;;;;;7.63;5.75;;;29.20;1.00;;;;;;5083303;28;20085;-73
2023/06/10 10:07:56;;;;;;;6.63;5.93;;;29.30;1.00;;;;;;5117743;28;20066;-73
2023/06/10 10:10:23;;;;;;;7.05;6.03;;;29.40;1.00;;;;;;5101815;28;20305;-74
2023/06/10 10:12:56;;;;;;;6.80;6.07;;;29.50;1.00;;;;;;5101239;28;20043;-74
2023/06/10 10:15:25;;;;;;;9.90;5.75;;;29.50;1.00;;;;;;5117482;28;20028;-74
2023/06/10 10:18:04;;;;;;;7.35;5.40;;;29.60;1.00;;;;;;5118231;28;20032;-74
2023/06/10 10:20:42;;;;;;;8.20;5.72;;;29.60;1.00;;;;;;5118113;28;20028;-73
2023/06/10 10:23:10;;;;;;;6.45;5.65;;;29.70;1.00;;;;;;5118057;28;20350;-73
2023/06/10 10:25:40;;;;;;;6.47;5.03;;;29.80;99.90;;;;;;5118005;28;20067;-74
2023/06/10 10:28:11;;;;;;;5.82;5.30;;;29.80;99.90;;;;;;5099832;28;20031;-77
2023/06/10 10:30:46;;;;;;;5.60;5.00;;;29.90;99.90;;;;;;5117946;28;20042;-75
2023/06/10 10:33:51;;;;;;;6.25;5.03;;;30.00;99.90;;;;;;5117484;28;20035;-75
2023/06/10 10:36:18;;;;;;;9.68;6.05;;;30.10;99.90;;;;;;5116833;28;20043;-74
2023/06/10 10:38:47;;;;;;;6.82;5.75;;;30.20;99.90;;;;;;5099332;28;20425;-74
2023/06/10 10:41:14;;;;;;;5.88;4.65;;;30.40;99.90;;;;;;5117215;28;20103;-75
2023/06/10 10:43:41;;;;;;;8.20;5.07;;;30.40;99.90;;;;;;5117483;28;20036;-72
2023/06/10 10:46:12;;;;;;;5.75;5.25;;;30.50;99.90;;;;;;5117185;28;20276;-73
2023/06/10 10:48:40;;;;;;;5.43;5.00;;;30.60;99.90;;;;;;5099665;28;20032;-74
2023/06/10 10:51:07;;;;;;;5.38;4.88;;;30.90;91.60;;;;;;5104272;28;20119;-74
2023/06/10 10:53:33;;;;;;;7.68;5.43;;;31.00;28.40;;;;;;5121747;28;20110;-76
2023/06/10 10:56:14;;;;;;;5.45;4.95;;;30.90;24.10;;;;;;5121516;28;20055;-72
2023/06/10 10:58:40;;;;;;;10.32;5.25;;;30.90;21.70;;;;;;5101315;28;20110;-73
2023/06/10 11:01:14;;;;;;;6.10;5.60;;;31.10;47.80;;;;;;5120985;28;20055;-72
2023/06/10 11:03:47;;;;;;;7.82;5.75;;;31.30;44.20;;;;;;5103015;28;20039;-73
2023/06/10 11:06:18;;;;;;;5.53;5.13;;;31.40;14.40;;;;;;5120791;28;20104;-72
2023/06/10 11:08:43;;;;;;;6.63;5.32;;;31.70;1.00;;;;;;5120802;28;20092;-72
2023/06/10 11:11:25;;;;;;;5.20;4.65;;;32.50;1.00;;;;;;5086152;28;20039;-71
2023/06/10 11:14:07;;;;;;;5.60;5.10;;;33.90;1.00;;;;;;5120673;28;20028;-72
2023/06/10 11:16:43;;;;;;;5.43;5.00;;;33.90;1.00;;;;;;5085982;28;20314;-72
2023/06/10 11:19:09;;;;;;;5.38;4.82;;;34.30;1.00;;;;;;5120626;28;20031;-72
2023/06/10 11:21:59;;;;;;;5.55;5.13;;;35.00;1.00;;;;;;5121111;28;20097;-71
2023/06/10 11:24:25;;;;;;;5.35;4.85;;;33.90;1.00;;;;;;5120465;28;20031;-72
2023/06/10 11:26:51;;;;;;;5.85;5.25;;;35.30;1.00;;;;;;5102681;28;20076;-74
2023/06/10 11:29:17;;;;;;;6.53;4.95;;;35.40;1.00;;;;;;5085812;28;20032;-73
2023/06/10 11:31:45;;;;;;;5.43;4.90;;;35.20;1.00;;;;;;5102581;28;20054;-72
2023/06/10 11:34:12;;;;;;;5.65;5.00;;;35.00;1.00;;;;;;5102366;28;20336;-75
2023/06/10 11:36:45;;;;;;;5.13;4.68;;;35.50;1.00;;;;;;5120306;28;20088;-76
2023/06/10 11:39:11;;;;;;;4.60;4.30;;;36.30;1.00;;;;;;5120539;28;20039;-75
2023/06/10 11:41:39;;;;;;;5.25;4.63;;;36.90;1.00;;;;;;5120395;28;20027;-75
2023/06/10 11:44:13;;;;;;;5.50;5.00;;;36.60;1.00;;;;;;5102628;28;20378;-75
2023/06/10 11:46:40;;;;;;;6.18;4.75;;;37.30;1.00;;;;;;5102446;28;20035;-76
2023/06/10 11:49:06;;;;;;;7.95;5.40;;;37.00;1.00;;;;;;5120190;28;20106;-75
2023/06/10 11:51:35;;;;;;;5.82;5.20;;;37.70;1.00;;;;;;5102331;28;20097;-75
2023/06/10 11:54:01;;;;;;;7.05;5.10;;;37.00;1.00;;;;;;5102138;28;20019;-73
2023/06/10 11:56:28;;;;;;;6.20;4.88;;;38.20;1.00;;;;;;5120318;28;20106;-74
2023/06/10 11:59:04;;;;;;;6.97;5.38;;;37.00;1.00;;;;;;5119589;28;20082;-74
2023/06/10 12:01:31;;;;;;;8.25;5.05;;;37.20;1.00;;;;;;5119415;28;20055;-74
2023/06/10 12:04:01;;;;;;;5.60;5.10;;;39.30;1.00;;;;;;5119601;28;20049;-73
2023/06/10 12:06:27;;;;;;;6.18;5.40;;;38.60;1.00;;;;;;5119291;28;20126;-74
2023/06/10 12:08:54;;;;;;;10.48;5.25;;;38.70;1.00;;;;;;5119593;28;20475;-75
2023/06/10 12:11:21;;;;;;;6.25;4.93;;;37.80;1.00;;;;;;5119514;28;20020;-74
2023/06/10 12:13:49;;;;;;;7.75;4.90;;;36.30;1.00;;;;;;5119745;28;20063;-73
2023/06/10 12:16:19;;;;;;;7.15;5.60;;;36.80;1.00;;;;;;5119669;28;20305;-76
2023/06/10 12:18:46;;;;;;;5.18;4.78;;;37.40;1.00;;;;;;5101562;28;20035;-77
2023/06/10 12:21:17;;;;;;;6.68;4.82;;;37.60;1.00;;;;;;5101636;28;20020;-75
2023/06/10 12:24:05;;;;;;;5.72;5.22;;;37.40;1.00;;;;;;5119276;28;20035;-73
2023/06/10 12:26:48;;;;;;;6.93;5.20;;;37.50;1.00;;;;;;5119875;28;20024;-74
2023/06/10 12:29:24;;;;;;;6.47;5.18;;;38.30;1.00;;;;;;5119157;28;20050;-74
2023/06/10 12:32:05;;;;;;;5.40;4.78;;;37.10;1.00;;;;;;5119104;28;20024;-75
2023/06/10 12:34:36;;;;;;;5.55;4.60;;;37.60;1.00;;;;;;5108294;28;20107;-73
2023/06/10 12:37:04;;;;;;;6.30;4.88;;;36.30;1.00;;;;;;5118930;28;20314;-73
2023/06/10 12:39:34;;;;;;;5.30;4.85;;;36.70;1.00;;;;;;5118762;28;20096;-74
2023/06/10 12:42:01;;;;;;;10.18;5.05;;;37.60;1.00;;;;;;5118129;28;20122;-77
2023/06/10 12:44:35;;;;;;;7.97;5.13;;;39.30;1.00;;;;;;5118905;28;20151;-73
2023/06/10 12:47:08;;;;;;;7.43;4.70;;;39.30;1.00;;;;;;5118753;28;20061;-73
2023/06/10 12:49:35;;;;;;;5.90;5.30;;;38.50;1.00;;;;;;5117971;28;20119;-73
2023/06/10 12:52:01;;;;;;;7.03;5.00;;;37.00;1.00;;;;;;5117578;28;20395;-73
2023/06/10 12:54:26;;;;;;;5.32;4.82;;;36.90;1.00;;;;;;5117845;28;20142;-73